Derby Airport

Airport
ICAO code: 
YDBY
IATA Code: 
DRB
Summary
ICAO Region: 
APAC
Territory: 
Location: 
Derby, Western Australia
Serving: 
Derby
Elevation: 
24 ft
Coordinates: 
Aerial View: 
17° 22' 18.761" S, 123° 39' 41.58" E
Metar
Observation
YDBY 281400Z AUTO 00000KT 9999 // NCD 28/23 Q1008
Station
Derby Airport
Date/Time
2021-11-28 14:00:00
Wind direction
Wind speed
00 kts
Lowest cloud amount
no clouds detected
Temperature
28°C
Dew point
23°C
Humidity
74%
QNH
1008 hPa
Weather condition
n/a

Airport located in Derby, Western Australia.

Runways

Designator Length Width Surface Rops
5/23 1158 18 GVL No/No
11/29 1736 30 ASP No/No
Airport map: 
Aerial View: 

SKYbrary Partners:

Safety knowledge contributed by: